Cleveland, OH (44141)

11:20 AM EST on February 07, 2016 (GMT -0500)
Whitewood | | Change Station
CLOSE
Current Station
Personal Weather Station
Location: Brecksville, OH
Elevation: 846 ft
Nearby Weather Stations

Elev 846 ft 41.34 °N, 81.62 °W | Updated 2 minutes ago

Partly Cloudy
Partly Cloudy
46.2 °F
Feels Like 42 °F
N
9.4
Wind Variable Wind from SSE

Today
High -- | Low -- °F
--% Chance of Precip.
Yesterday
High -- | Low -- °F
Precip. -- in
Pressure 30.04 in
Visibility 10.0 miles
Clouds Scattered Clouds 25000 ft
Windchill 42 °F
Dew Point 27 °F
Humidity 47%
Rainfall 0.00 in
Snow Depth Not available.
7:31 AM 5:49 PM
Waning Crescent, 1% visible
METAR KCLE 071551Z 19013KT 10SM SCT250 06/M04 A3002 RMK AO2 SLP173 T00561044
Pressure 30.04 in
Visibility 10.0 miles
Clouds Scattered Clouds 25000 ft
Windchill 42 °F
Dew Point 27 °F
Humidity 47%
Rainfall 0.00 in
Snow Depth Not available.
7:31 AM 5:49 PM
Waning Crescent, 1% visible
METAR KCLE 071551Z 19013KT 10SM SCT250 06/M04 A3002 RMK AO2 SLP173 T00561044

10-Day Weather Forecast

Almanac

Astronomy

Feb. 07, 2016 Rise Set
Actual Time
Civil Twilight
Nautical Twilight
Astronomical Twilight
Moon
Length of Visible Light
Length of Day
Tomorrow will be .
, % of the Moon is Illuminated

Today's Extremes

State Highs State Lows

Community

WunderPhotos

Upload Photos

1,891,221 photos uploaded!

WunderBlog® & News

Nearby

Air Quality

  Air Quality AQ Index Pollutant
Not available.

Snow Depth

Station Depth Elevation

Earthquake Activity

City Distance Mag. Time & Date
Minimum magnitude displayed is 2.5.

Coastal Water Temperatures

Place Temperature

Stations

Nearby Weather Stations

Station Location Temp. Windchill Dew Point Humidity Wind Precip. Elev Updated Type
                   

Watches & Warnings

There are currently no watches in effect.